createdAt,value
2023-03-03T00:00:44.199Z,4.18
2023-03-03T00:03:15.517Z,3.38
2023-03-03T00:05:42.610Z,2.46
2023-03-03T00:08:10.537Z,2.85
2023-03-03T00:10:37.693Z,2.73
2023-03-03T00:13:04.461Z,3.83
2023-03-03T00:15:31.511Z,3.78
2023-03-03T00:17:59.373Z,3.57
2023-03-03T00:20:39.961Z,3.92
2023-03-03T00:23:35.132Z,3.90
2023-03-03T00:26:02.700Z,2.88
2023-03-03T00:28:49.712Z,3.69
2023-03-03T00:31:29.374Z,3.63
2023-03-03T00:34:17.056Z,3.89
2023-03-03T00:36:44.118Z,3.77
2023-03-03T00:39:28.688Z,3.18
2023-03-03T00:41:55.414Z,3.92
2023-03-03T00:44:45.133Z,3.52
2023-03-03T00:47:23.210Z,3.07
2023-03-03T00:49:49.652Z,2.42
2023-03-03T00:52:20.589Z,2.36
2023-03-03T00:54:47.448Z,2.70
2023-03-03T00:57:13.867Z,2.83
2023-03-03T00:59:40.924Z,2.52
2023-03-03T01:02:07.344Z,3.08
2023-03-03T01:04:33.794Z,3.77
2023-03-03T01:07:00.207Z,3.71
2023-03-03T01:09:26.618Z,3.07
2023-03-03T01:11:53.158Z,3.15
2023-03-03T01:14:19.743Z,3.56
2023-03-03T01:16:46.242Z,2.90
2023-03-03T01:19:12.747Z,2.61
2023-03-03T01:21:40.041Z,3.75
2023-03-03T01:24:06.462Z,2.48
2023-03-03T01:26:32.920Z,2.69
2023-03-03T01:28:59.323Z,3.47
2023-03-03T01:31:26.271Z,3.00
2023-03-03T01:33:52.774Z,3.74
2023-03-03T01:36:26.549Z,4.06
2023-03-03T01:38:52.971Z,3.44
2023-03-03T01:41:20.159Z,3.67
2023-03-03T01:43:48.962Z,4.10
2023-03-03T01:46:24.267Z,2.71
2023-03-03T01:49:02.867Z,3.19
2023-03-03T01:51:37.332Z,2.29
2023-03-03T01:54:10.557Z,2.83
2023-03-03T01:56:37.300Z,2.55
2023-03-03T01:59:06.973Z,3.34
2023-03-03T02:01:34.422Z,2.85
2023-03-03T02:04:01.002Z,3.86
2023-03-03T02:06:35.240Z,3.37
2023-03-03T02:09:20.135Z,3.75
2023-03-03T02:11:48.950Z,4.05
2023-03-03T02:14:15.415Z,3.34
2023-03-03T02:16:42.451Z,4.22
2023-03-03T02:19:18.058Z,3.61
2023-03-03T02:21:44.517Z,2.71
2023-03-03T02:24:33.365Z,4.02
2023-03-03T02:27:00.107Z,4.15
2023-03-03T02:29:26.552Z,3.98
2023-03-03T02:31:53.030Z,3.30
2023-03-03T02:34:19.550Z,3.53
2023-03-03T02:36:46.112Z,3.49
2023-03-03T02:39:20.620Z,4.05
2023-03-03T02:42:09.895Z,4.38
2023-03-03T02:44:36.432Z,3.05
2023-03-03T02:47:02.851Z,2.90
2023-03-03T02:49:34.734Z,3.26
2023-03-03T02:52:04.092Z,3.55
2023-03-03T02:54:30.954Z,3.09
2023-03-03T02:56:58.552Z,3.85
2023-03-03T02:59:25.087Z,4.16
2023-03-03T03:01:52.062Z,4.24
2023-03-03T03:04:24.872Z,4.21
2023-03-03T03:06:52.850Z,4.19
2023-03-03T03:09:21.922Z,3.83
2023-03-03T03:11:48.409Z,3.64
2023-03-03T03:14:15.153Z,4.17
2023-03-03T03:16:41.669Z,3.89
2023-03-03T03:19:08.678Z,4.16
2023-03-03T03:21:35.373Z,3.33
2023-03-03T03:24:01.941Z,4.28
2023-03-03T03:26:28.437Z,3.65
2023-03-03T03:28:54.950Z,4.36
2023-03-03T03:31:22.031Z,4.41
2023-03-03T03:33:49.154Z,3.65
2023-03-03T03:36:15.802Z,4.38
2023-03-03T03:38:42.268Z,4.46
2023-03-03T03:41:08.811Z,3.72
2023-03-03T03:43:35.415Z,4.26
2023-03-03T03:46:02.065Z,4.01
2023-03-03T03:48:28.921Z,3.37
2023-03-03T03:50:55.408Z,3.87
2023-03-03T03:53:21.870Z,4.13
2023-03-03T03:55:48.342Z,4.47
2023-03-03T03:58:17.151Z,4.60
2023-03-03T04:00:44.874Z,4.70
2023-03-03T04:03:12.168Z,4.36
2023-03-03T04:05:38.792Z,4.59
2023-03-03T04:08:05.445Z,4.72
2023-03-03T04:10:31.998Z,4.43
2023-03-03T04:12:58.504Z,4.31
2023-03-03T04:15:24.934Z,4.72
2023-03-03T04:17:51.474Z,4.35
2023-03-03T04:20:18.026Z,4.51
2023-03-03T04:22:44.532Z,4.69
2023-03-03T04:25:15.357Z,4.61
2023-03-03T04:27:43.200Z,4.70
2023-03-03T04:30:10.351Z,3.35
2023-03-03T04:32:36.785Z,4.20
2023-03-03T04:35:08.186Z,3.85
2023-03-03T04:37:36.403Z,3.77
2023-03-03T04:40:04.996Z,3.27
2023-03-03T04:42:31.477Z,3.71
2023-03-03T04:44:57.987Z,4.04
2023-03-03T04:47:24.447Z,2.94
2023-03-03T04:49:50.850Z,3.59
2023-03-03T04:52:17.270Z,4.34
2023-03-03T04:54:43.743Z,4.00
2023-03-03T04:57:10.234Z,4.47
2023-03-03T04:59:36.965Z,3.93
2023-03-03T05:02:05.318Z,3.54
2023-03-03T05:04:31.999Z,3.47
2023-03-03T05:06:58.517Z,4.13
2023-03-03T05:09:24.998Z,4.49
2023-03-03T05:11:51.716Z,4.36
2023-03-03T05:14:18.453Z,4.24
2023-03-03T05:16:45.113Z,4.59
2023-03-03T05:19:12.816Z,3.99
2023-03-03T05:21:42.391Z,4.16
2023-03-03T05:24:10.427Z,4.71
2023-03-03T05:26:36.949Z,4.79
2023-03-03T05:29:03.834Z,4.85
2023-03-03T05:31:30.405Z,4.55
2023-03-03T05:33:56.833Z,4.45
2023-03-03T05:36:23.381Z,4.67
2023-03-03T05:38:49.838Z,4.17
2023-03-03T05:41:16.544Z,4.26
2023-03-03T05:43:43.196Z,4.36
2023-03-03T05:46:10.400Z,4.12
2023-03-03T05:48:36.873Z,4.38
2023-03-03T05:51:03.365Z,4.42
2023-03-03T05:53:30.247Z,4.73
2023-03-03T05:55:57.394Z,4.39
2023-03-03T05:58:24.123Z,4.68
2023-03-03T06:00:50.595Z,4.67
2023-03-03T06:03:17.169Z,4.67
2023-03-03T06:05:43.801Z,4.88
2023-03-03T06:08:10.257Z,4.89
2023-03-03T06:10:36.801Z,4.09
2023-03-03T06:13:03.349Z,4.61
2023-03-03T06:15:30.019Z,4.20
2023-03-03T06:17:56.450Z,4.08
2023-03-03T06:20:22.972Z,4.64
2023-03-03T06:22:49.419Z,4.31
2023-03-03T06:25:15.978Z,4.33
2023-03-03T06:27:42.425Z,4.51
2023-03-03T06:30:09.474Z,4.71
2023-03-03T06:32:35.945Z,3.71
2023-03-03T06:35:02.425Z,3.83
2023-03-03T06:37:28.870Z,3.65
2023-03-03T06:39:56.403Z,3.63
2023-03-03T06:42:24.869Z,3.92
2023-03-03T06:44:51.366Z,4.44
2023-03-03T06:47:17.797Z,4.03
2023-03-03T06:49:44.204Z,4.66
2023-03-03T06:52:19.068Z,3.87
2023-03-03T06:54:45.462Z,4.38
2023-03-03T06:57:28.286Z,4.40
2023-03-03T06:59:58.314Z,3.77
2023-03-03T07:02:24.901Z,3.63
2023-03-03T07:04:55.975Z,3.58
2023-03-03T07:07:24.742Z,4.18
2023-03-03T07:09:56.694Z,4.45
2023-03-03T07:12:41.318Z,4.33
2023-03-03T07:15:22.975Z,4.21
2023-03-03T07:17:52.540Z,3.66
2023-03-03T07:20:25.157Z,4.25
2023-03-03T07:22:52.033Z,3.90
2023-03-03T07:25:34.294Z,4.84
2023-03-03T07:28:25.227Z,4.17
2023-03-03T07:30:53.395Z,3.71
2023-03-03T07:33:44.044Z,3.91
2023-03-03T07:36:27.702Z,4.31
2023-03-03T07:38:57.592Z,4.60
2023-03-03T07:41:24.602Z,4.14
2023-03-03T07:44:31.360Z,4.53
2023-03-03T07:46:57.808Z,3.92
2023-03-03T07:49:31.019Z,3.71
2023-03-03T07:52:00.188Z,3.39
2023-03-03T07:54:29.566Z,3.65
2023-03-03T07:57:02.121Z,3.62
2023-03-03T07:59:28.506Z,4.01
2023-03-03T08:01:58.212Z,4.65
2023-03-03T08:04:54.785Z,4.64
2023-03-03T08:07:23.144Z,4.03
2023-03-03T08:09:52.124Z,4.45
2023-03-03T08:13:00.703Z,4.53
2023-03-03T08:15:36.609Z,4.23
2023-03-03T08:18:21.404Z,4.86
2023-03-03T08:20:52.432Z,4.63
2023-03-03T08:23:20.152Z,5.32
2023-03-03T08:25:52.322Z,4.34
2023-03-03T08:28:20.420Z,5.30
2023-03-03T08:30:47.335Z,4.60
2023-03-03T08:33:14.921Z,4.22
2023-03-03T08:35:42.071Z,4.34
2023-03-03T08:38:09.350Z,4.77
2023-03-03T08:40:36.242Z,5.04
2023-03-03T08:43:03.603Z,5.31
2023-03-03T08:45:30.262Z,4.43
2023-03-03T08:47:56.925Z,5.14
2023-03-03T08:50:23.462Z,5.59
2023-03-03T08:52:50.150Z,5.55
2023-03-03T08:55:16.644Z,5.24
2023-03-03T08:57:43.393Z,4.42
2023-03-03T09:00:13.281Z,4.56
2023-03-03T09:02:39.894Z,4.09
2023-03-03T09:05:06.877Z,4.27
2023-03-03T09:07:33.486Z,5.43
2023-03-03T09:09:59.897Z,5.38
2023-03-03T09:12:50.720Z,4.30
2023-03-03T09:15:17.091Z,4.56
2023-03-03T09:17:44.390Z,4.59
2023-03-03T09:20:31.494Z,4.23
2023-03-03T09:22:58.749Z,5.26
2023-03-03T09:25:33.391Z,5.47
2023-03-03T09:28:02.112Z,4.50
2023-03-03T09:30:45.948Z,5.01
2023-03-03T09:33:40.295Z,4.77
2023-03-03T09:36:25.014Z,4.63
2023-03-03T09:38:51.665Z,4.61
2023-03-03T09:41:54.072Z,4.94
2023-03-03T09:44:42.737Z,4.83
2023-03-03T09:47:24.411Z,4.47
2023-03-03T09:50:13.042Z,3.75
2023-03-03T09:52:54.717Z,3.69
2023-03-03T09:55:37.376Z,5.14
2023-03-03T09:58:31.846Z,4.67
2023-03-03T10:01:10.476Z,4.31
2023-03-03T10:03:52.724Z,4.72
2023-03-03T10:06:31.704Z,4.48
2023-03-03T10:09:10.358Z,4.40
2023-03-03T10:12:28.357Z,4.72
2023-03-03T10:15:22.000Z,5.03
2023-03-03T10:17:52.269Z,4.39
2023-03-03T10:20:49.440Z,4.96
2023-03-03T10:23:23.310Z,5.47
2023-03-03T10:25:57.259Z,5.83
2023-03-03T10:29:04.426Z,5.59
2023-03-03T10:31:36.774Z,4.65
2023-03-03T10:34:22.008Z,4.34
2023-03-03T10:37:19.078Z,4.94
2023-03-03T10:40:00.148Z,5.32
2023-03-03T10:42:42.905Z,5.27
2023-03-03T10:45:45.792Z,5.29
2023-03-03T10:48:18.291Z,4.50
2023-03-03T10:51:02.271Z,5.85
2023-03-03T10:57:22.934Z,4.75
2023-03-03T10:59:52.072Z,5.97
2023-03-03T11:02:32.763Z,6.33
2023-03-03T11:05:02.252Z,5.70
2023-03-03T11:07:38.593Z,5.43
2023-03-03T11:10:37.097Z,4.43
2023-03-03T11:13:10.066Z,4.78
2023-03-03T11:16:15.950Z,5.52
2023-03-03T11:18:45.192Z,6.18
2023-03-03T11:21:53.456Z,5.50
2023-03-03T11:24:53.107Z,5.58
2023-03-03T11:27:44.689Z,5.19
2023-03-03T11:30:26.297Z,5.34
2023-03-03T11:33:04.678Z,5.51
2023-03-03T11:36:11.951Z,6.32
2023-03-03T11:38:50.535Z,5.79
2023-03-03T11:41:56.114Z,5.81
2023-03-03T11:44:27.321Z,5.53
2023-03-03T11:47:00.583Z,5.93
2023-03-03T11:49:51.600Z,5.99
2023-03-03T11:52:36.824Z,5.96
2023-03-03T11:55:15.102Z,5.72
2023-03-03T11:58:12.713Z,6.49
2023-03-03T12:01:03.958Z,6.08
2023-03-03T12:03:38.752Z,6.33
2023-03-03T12:14:09.065Z,6.09
2023-03-03T12:16:42.395Z,6.50
2023-03-03T12:19:11.813Z,5.64
2023-03-03T12:21:58.810Z,5.79
2023-03-03T12:24:47.006Z,6.38
2023-03-03T12:27:34.672Z,5.94
2023-03-03T12:30:13.355Z,6.55
2023-03-03T12:32:52.101Z,6.34
2023-03-03T12:36:10.177Z,5.95
2023-03-03T12:39:02.313Z,6.53
2023-03-03T12:41:45.295Z,6.42
2023-03-03T12:44:22.971Z,7.04
2023-03-03T12:47:03.823Z,7.34
2023-03-03T12:50:08.885Z,7.93
2023-03-03T12:52:54.065Z,7.29
2023-03-03T12:55:24.303Z,7.20
2023-03-03T12:58:21.709Z,6.69
2023-03-03T13:00:57.333Z,7.33
2023-03-03T13:03:55.088Z,7.11
2023-03-03T13:06:39.990Z,7.29
2023-03-03T13:09:31.099Z,6.79
2023-03-03T13:12:23.836Z,5.98
2023-03-03T13:15:03.186Z,6.56
2023-03-03T13:17:37.195Z,6.18
2023-03-03T13:20:18.677Z,6.91
2023-03-03T13:23:02.108Z,7.01
2023-03-03T13:25:47.146Z,7.34
2023-03-03T13:28:23.425Z,6.82
2023-03-03T13:30:56.738Z,7.04
2023-03-03T13:33:28.806Z,6.43
2023-03-03T13:36:11.478Z,7.11
2023-03-03T13:38:46.857Z,7.73
2023-03-03T13:41:29.556Z,7.24
2023-03-03T13:44:16.714Z,7.63
2023-03-03T13:47:25.646Z,6.79
2023-03-03T13:50:09.358Z,7.18
2023-03-03T13:52:52.405Z,7.43
2023-03-03T13:55:32.929Z,7.63
2023-03-03T13:58:14.281Z,7.05
2023-03-03T14:00:48.253Z,7.55
2023-03-03T14:03:40.737Z,6.71
2023-03-03T14:06:23.172Z,7.15
2023-03-03T14:08:58.483Z,7.36
2023-03-03T14:11:43.553Z,7.02
2023-03-03T14:14:47.653Z,7.45
2023-03-03T14:17:26.809Z,7.34
2023-03-03T14:20:03.456Z,6.57
2023-03-03T14:23:04.844Z,6.77
2023-03-03T14:25:52.739Z,6.83
2023-03-03T14:28:22.152Z,6.82
2023-03-03T14:30:48.996Z,7.16
2023-03-03T14:33:20.557Z,7.34
2023-03-03T14:35:56.276Z,6.83
2023-03-03T14:38:44.706Z,6.99
2023-03-03T14:41:11.060Z,6.85
2023-03-03T14:43:39.722Z,6.91
2023-03-03T14:46:40.419Z,6.72
2023-03-03T14:49:30.595Z,6.69
2023-03-03T14:52:22.018Z,6.06
2023-03-03T14:55:00.756Z,6.81
2023-03-03T14:57:48.558Z,6.81
2023-03-03T15:00:16.284Z,6.64
2023-03-03T15:02:46.760Z,7.01
2023-03-03T15:05:30.414Z,6.58
2023-03-03T15:08:05.984Z,7.01
2023-03-03T15:10:35.050Z,7.18
2023-03-03T15:13:30.561Z,6.58
2023-03-03T15:15:59.842Z,5.51
2023-03-03T15:18:35.045Z,5.92
2023-03-03T15:21:15.265Z,6.00
2023-03-03T15:23:51.596Z,6.57
2023-03-03T15:26:46.196Z,5.99
2023-03-03T15:29:37.050Z,5.60
2023-03-03T15:32:31.071Z,6.02
2023-03-03T15:35:13.697Z,5.52
2023-03-03T15:37:52.656Z,6.29
2023-03-03T15:40:26.092Z,5.94
2023-03-03T15:43:11.463Z,5.91
2023-03-03T15:46:00.365Z,6.14
2023-03-03T15:48:53.041Z,7.11
2023-03-03T15:51:37.947Z,6.24
2023-03-03T15:54:10.411Z,6.57
2023-03-03T15:56:58.463Z,5.78
2023-03-03T15:59:53.035Z,6.88
2023-03-03T16:02:30.563Z,6.52
2023-03-03T16:05:03.402Z,6.26
2023-03-03T16:07:35.615Z,5.71
2023-03-03T16:10:40.498Z,5.89
2023-03-03T16:13:45.780Z,5.79
2023-03-03T16:16:43.287Z,5.15
2023-03-03T16:19:38.618Z,5.65
2023-03-03T16:22:24.553Z,5.40
2023-03-03T16:25:21.861Z,6.35
2023-03-03T16:28:09.403Z,5.24
2023-03-03T16:30:44.745Z,5.12
2023-03-03T16:33:29.915Z,5.88
2023-03-03T16:36:12.288Z,5.24
2023-03-03T16:38:42.181Z,6.20
2023-03-03T16:41:22.847Z,4.95
2023-03-03T16:44:16.000Z,5.02
2023-03-03T16:46:49.308Z,5.88
2023-03-03T16:49:15.654Z,5.80
2023-03-03T16:52:11.551Z,5.91
2023-03-03T16:55:07.693Z,5.03
2023-03-03T16:57:45.728Z,5.68
2023-03-03T17:00:19.253Z,5.27
2023-03-03T17:02:57.492Z,6.26
2023-03-03T17:05:29.956Z,5.68
2023-03-03T17:08:14.595Z,5.84
2023-03-03T17:11:11.499Z,5.86
2023-03-03T17:13:52.957Z,5.69
2023-03-03T17:16:19.322Z,5.24
2023-03-03T17:19:04.409Z,6.14
2023-03-03T17:21:57.698Z,5.79
2023-03-03T17:24:33.222Z,6.45
2023-03-03T17:27:11.766Z,6.21
2023-03-03T17:29:47.212Z,6.02
2023-03-03T17:32:33.039Z,6.30
2023-03-03T17:35:33.704Z,6.25
2023-03-03T17:38:12.214Z,5.76
2023-03-03T17:40:45.958Z,5.63
2023-03-03T17:43:21.668Z,5.82
2023-03-03T17:45:51.914Z,5.70
2023-03-03T17:48:44.062Z,5.77
2023-03-03T17:51:22.890Z,5.61
2023-03-03T17:54:07.636Z,5.88
2023-03-03T17:57:35.278Z,5.31
2023-03-03T18:00:19.209Z,6.04
2023-03-03T18:03:18.347Z,5.99
2023-03-03T18:05:53.730Z,6.24
2023-03-03T18:08:50.969Z,5.88
2023-03-03T18:11:34.136Z,6.25
2023-03-03T18:14:12.700Z,6.23
2023-03-03T18:16:51.216Z,6.10
2023-03-03T18:19:26.819Z,5.88
2023-03-03T18:22:07.430Z,6.10
2023-03-03T18:24:38.539Z,6.10
2023-03-03T18:27:23.694Z,5.86
2023-03-03T18:30:20.457Z,6.01
2023-03-03T18:32:49.925Z,5.44
2023-03-03T18:35:38.358Z,5.90
2023-03-03T18:38:16.786Z,6.08
2023-03-03T18:41:05.057Z,5.12
2023-03-03T18:43:43.643Z,5.77
2023-03-03T18:46:25.227Z,5.54
2023-03-03T18:49:09.951Z,5.74
2023-03-03T18:51:39.175Z,5.69
2023-03-03T18:54:19.919Z,5.25
2023-03-03T18:56:49.843Z,5.72
2023-03-03T18:59:31.602Z,5.94
2023-03-03T19:02:20.274Z,5.83
2023-03-03T19:04:55.664Z,6.03
2023-03-03T19:07:39.002Z,5.75
2023-03-03T19:10:21.375Z,5.84
2023-03-03T19:12:55.553Z,5.59
2023-03-03T19:15:31.210Z,5.63
2023-03-03T19:18:04.838Z,6.14
2023-03-03T19:20:43.450Z,6.23
2023-03-03T19:23:16.134Z,6.10
2023-03-03T19:25:42.968Z,5.70
2023-03-03T19:28:12.323Z,5.23
2023-03-03T19:30:44.895Z,5.46
2023-03-03T19:33:52.031Z,5.37
2023-03-03T19:36:38.109Z,5.76
2023-03-03T19:39:07.480Z,5.81
2023-03-03T19:41:40.069Z,5.35
2023-03-03T19:44:28.173Z,6.08
2023-03-03T19:47:06.120Z,5.82
2023-03-03T19:49:54.224Z,5.73
2023-03-03T19:52:42.196Z,6.18
2023-03-03T19:55:20.711Z,5.93
2023-03-03T19:57:54.059Z,6.00
2023-03-03T20:00:34.533Z,6.14
2023-03-03T20:03:28.748Z,6.15
2023-03-03T20:06:19.422Z,5.67
2023-03-03T20:09:13.812Z,5.62
2023-03-03T20:11:48.130Z,5.98
2023-03-03T20:14:35.737Z,5.24
2023-03-03T20:17:12.225Z,6.28
2023-03-03T20:19:56.084Z,6.73
2023-03-03T20:23:03.157Z,6.59
2023-03-03T20:25:42.313Z,6.63
2023-03-03T20:28:21.533Z,6.41
2023-03-03T20:30:56.424Z,5.77
2023-03-03T20:33:53.461Z,5.66
2023-03-03T20:36:35.771Z,6.22
2023-03-03T20:39:28.370Z,6.64
2023-03-03T20:41:58.771Z,5.90
2023-03-03T20:44:49.677Z,5.88
2023-03-03T20:47:25.202Z,6.00
2023-03-03T20:49:55.230Z,6.23
2023-03-03T20:52:33.834Z,6.11
2023-03-03T20:55:10.685Z,6.05
2023-03-03T20:57:57.814Z,6.27
2023-03-03T21:00:31.459Z,6.37
2023-03-03T21:03:09.874Z,6.77
2023-03-03T21:05:55.388Z,6.07
2023-03-03T21:08:40.399Z,6.36
2023-03-03T21:11:08.014Z,5.87
2023-03-03T21:13:40.307Z,6.48
2023-03-03T21:16:27.018Z,6.51
2023-03-03T21:19:01.108Z,6.38
2023-03-03T21:21:30.246Z,6.41
2023-03-03T21:23:59.001Z,6.56
2023-03-03T21:26:50.429Z,6.59
2023-03-03T21:29:27.572Z,5.90
2023-03-03T21:31:56.633Z,6.65
2023-03-03T21:34:28.943Z,6.37
2023-03-03T21:36:57.075Z,6.58
2023-03-03T21:39:29.312Z,6.30
2023-03-03T21:42:01.720Z,6.98
2023-03-03T21:44:40.449Z,6.87
2023-03-03T21:47:09.532Z,7.08
2023-03-03T21:49:39.847Z,6.86
2023-03-03T21:52:06.252Z,6.60
2023-03-03T21:54:32.674Z,6.59
2023-03-03T21:56:59.090Z,7.33
2023-03-03T21:59:25.570Z,6.69
2023-03-03T22:01:52.049Z,6.87
2023-03-03T22:04:19.600Z,6.18
2023-03-03T22:06:46.065Z,6.42
2023-03-03T22:09:12.692Z,6.98
2023-03-03T22:11:39.641Z,6.84
2023-03-03T22:14:07.188Z,6.74
2023-03-03T22:16:34.190Z,6.41
2023-03-03T22:19:02.746Z,6.82
2023-03-03T22:21:30.183Z,6.95
2023-03-03T22:23:56.755Z,6.65
2023-03-03T22:26:23.248Z,6.70
2023-03-03T22:28:50.114Z,6.39
2023-03-03T22:31:17.808Z,6.34
2023-03-03T22:33:44.528Z,6.67
2023-03-03T22:36:11.124Z,5.70
2023-03-03T22:38:39.828Z,6.91
2023-03-03T22:41:06.891Z,6.21
2023-03-03T22:43:33.576Z,6.52
2023-03-03T22:46:00.370Z,6.80
2023-03-03T22:48:30.459Z,6.95
2023-03-03T22:50:57.621Z,6.73
2023-03-03T22:53:24.874Z,6.09
2023-03-03T22:55:51.632Z,6.53
2023-03-03T22:58:25.292Z,6.51
2023-03-03T23:00:53.849Z,6.00
2023-03-03T23:03:20.986Z,6.15
2023-03-03T23:05:50.276Z,6.09
2023-03-03T23:08:20.156Z,6.17
2023-03-03T23:10:47.510Z,6.67
2023-03-03T23:13:14.014Z,5.90
2023-03-03T23:15:40.581Z,6.26
2023-03-03T23:18:07.153Z,5.80
2023-03-03T23:20:34.215Z,6.40
2023-03-03T23:23:00.669Z,6.77
2023-03-03T23:25:28.814Z,6.83
2023-03-03T23:27:55.892Z,6.50
2023-03-03T23:30:23.017Z,6.48
2023-03-03T23:32:50.228Z,6.16
2023-03-03T23:35:16.921Z,6.45
2023-03-03T23:37:43.487Z,6.88
2023-03-03T23:40:11.451Z,6.68
2023-03-03T23:42:37.970Z,6.47
2023-03-03T23:45:04.941Z,6.32
2023-03-03T23:47:31.422Z,6.35
2023-03-03T23:49:57.906Z,6.56
2023-03-03T23:52:24.376Z,6.70
2023-03-03T23:54:51.412Z,6.25
2023-03-03T23:57:17.823Z,6.19
2023-03-03T23:59:44.279Z,6.46
